createdAt,value
2023-04-24T00:01:35.154Z,72.69
2023-04-24T00:04:41.258Z,73.34
2023-04-24T00:07:45.935Z,72.87
2023-04-24T00:10:50.190Z,73.33
2023-04-24T00:13:53.015Z,74.10
2023-04-24T00:16:55.758Z,72.46
2023-04-24T00:20:00.136Z,71.92
2023-04-24T00:23:02.940Z,72.10
2023-04-24T00:26:07.102Z,73.03
2023-04-24T00:29:09.994Z,72.64
2023-04-24T00:32:12.924Z,72.00
2023-04-24T00:35:15.980Z,72.05
2023-04-24T00:38:18.665Z,71.97
2023-04-24T00:41:22.952Z,72.41
2023-04-24T00:44:25.887Z,72.16
2023-04-24T00:47:29.016Z,72.12
2023-04-24T00:50:31.958Z,71.82
2023-04-24T00:53:34.678Z,70.79
2023-04-24T00:56:38.924Z,70.22
2023-04-24T00:59:42.161Z,70.41
2023-04-24T01:02:46.575Z,69.84
2023-04-24T01:05:49.840Z,69.73
2023-04-24T01:08:52.630Z,69.75
2023-04-24T01:11:57.598Z,71.11
2023-04-24T01:15:00.379Z,70.43
2023-04-24T01:18:03.444Z,70.36
2023-04-24T01:21:07.170Z,69.82
2023-04-24T01:24:11.255Z,70.31
2023-04-24T01:27:14.467Z,70.54
2023-04-24T01:30:17.150Z,70.54
2023-04-24T01:33:21.506Z,70.62
2023-04-24T01:36:27.218Z,70.68
2023-04-24T01:39:31.366Z,71.35
2023-04-24T01:42:34.291Z,70.54
2023-04-24T01:45:37.088Z,71.61
2023-04-24T01:48:39.916Z,71.29
2023-04-24T01:51:42.606Z,71.98
2023-04-24T01:54:46.994Z,71.17
2023-04-24T01:57:49.709Z,71.49
2023-04-24T02:00:52.512Z,71.50
2023-04-24T02:03:55.300Z,71.39
2023-04-24T02:06:58.017Z,72.74
2023-04-24T02:10:02.275Z,71.80
2023-04-24T02:13:05.744Z,71.80
2023-04-24T02:16:08.482Z,71.91
2023-04-24T02:19:11.420Z,72.15
2023-04-24T02:22:14.238Z,72.76
2023-04-24T02:25:18.729Z,73.18
2023-04-24T02:28:21.596Z,73.41
2023-04-24T02:31:24.324Z,73.33
2023-04-24T02:34:27.140Z,73.71
2023-04-24T02:37:29.841Z,73.48
2023-04-24T02:40:34.174Z,74.63
2023-04-24T02:43:36.847Z,75.92
2023-04-24T02:46:39.571Z,77.34
2023-04-24T02:49:43.273Z,76.81
2023-04-24T02:52:46.374Z,77.21
2023-04-24T02:55:50.320Z,78.54
2023-04-24T02:58:53.026Z,78.02
2023-04-24T03:01:55.666Z,78.56
2023-04-24T03:04:58.395Z,77.73
2023-04-24T03:08:01.531Z,78.27
2023-04-24T03:11:05.849Z,78.62
2023-04-24T03:14:08.562Z,79.31
2023-04-24T03:17:11.232Z,79.49
2023-04-24T03:20:14.040Z,80.26
2023-04-24T03:23:17.133Z,80.25
2023-04-24T03:26:21.297Z,79.85
2023-04-24T03:29:24.167Z,79.85
2023-04-24T03:32:26.916Z,79.78
2023-04-24T03:35:29.770Z,80.45
2023-04-24T03:38:32.635Z,80.43
2023-04-24T03:41:36.662Z,80.04
2023-04-24T03:44:39.392Z,80.07
2023-04-24T03:47:42.101Z,79.99
2023-04-24T03:50:44.783Z,79.83
2023-04-24T03:53:47.426Z,80.35
2023-04-24T03:56:51.489Z,81.45
2023-04-24T03:59:54.536Z,81.30
2023-04-24T04:02:57.384Z,82.18
2023-04-24T04:06:00.309Z,81.42
2023-04-24T04:09:03.174Z,80.22
2023-04-24T04:12:07.264Z,80.57
2023-04-24T04:15:10.454Z,81.74
2023-04-24T04:18:13.210Z,82.64
2023-04-24T04:21:16.270Z,81.97
2023-04-24T04:24:18.932Z,79.96
2023-04-24T04:27:23.162Z,80.86
2023-04-24T04:30:26.872Z,81.68
2023-04-24T04:33:29.592Z,82.33
2023-04-24T04:36:32.321Z,82.53
2023-04-24T04:39:35.033Z,81.27
2023-04-24T04:42:41.316Z,79.66
2023-04-24T04:45:45.960Z,78.80
2023-04-24T04:48:48.724Z,78.50
2023-04-24T04:51:51.764Z,78.56
2023-04-24T04:54:54.572Z,78.36
2023-04-24T04:57:58.592Z,77.58
2023-04-24T05:01:01.422Z,78.16
2023-04-24T05:04:04.371Z,78.82
2023-04-24T05:07:07.527Z,79.37
2023-04-24T05:10:11.456Z,78.09
2023-04-24T05:13:17.838Z,78.21
2023-04-24T05:16:23.606Z,78.85
2023-04-24T05:19:26.329Z,78.79
2023-04-24T05:22:29.053Z,79.69
2023-04-24T05:25:33.200Z,79.20
2023-04-24T05:28:37.829Z,79.47
2023-04-24T05:31:41.132Z,80.01
2023-04-24T05:34:43.974Z,79.16
2023-04-24T05:37:46.629Z,78.53
2023-04-24T05:40:49.384Z,78.82
2023-04-24T05:43:53.691Z,78.50
2023-04-24T05:46:56.831Z,78.52
2023-04-24T05:49:59.606Z,78.73
2023-04-24T05:53:03.096Z,78.05
2023-04-24T05:56:06.329Z,78.59
2023-04-24T05:59:10.608Z,78.61
2023-04-24T06:02:13.370Z,78.01
2023-04-24T06:05:16.897Z,78.75
2023-04-24T06:08:19.644Z,78.82
2023-04-24T06:11:22.374Z,78.66
2023-04-24T06:14:26.400Z,78.53
2023-04-24T06:17:29.090Z,77.50
2023-04-24T06:20:31.923Z,77.54
2023-04-24T06:23:34.672Z,74.30
2023-04-24T06:26:37.580Z,74.10
2023-04-24T06:29:41.875Z,72.50
2023-04-24T06:32:44.807Z,69.44
2023-04-24T06:35:47.680Z,71.06
2023-04-24T06:38:50.663Z,69.96
2023-04-24T06:41:53.407Z,67.76
2023-04-24T06:44:57.467Z,65.80
2023-04-24T06:48:00.427Z,65.78
2023-04-24T06:51:03.133Z,61.39
2023-04-24T06:54:06.104Z,61.93
2023-04-24T06:57:08.925Z,61.54
2023-04-24T07:00:14.767Z,60.98
2023-04-24T07:03:17.496Z,60.73
2023-04-24T07:06:23.556Z,60.75
2023-04-24T07:09:27.410Z,59.47
2023-04-24T07:12:30.422Z,60.53
2023-04-24T07:15:34.954Z,58.99
2023-04-24T07:18:38.352Z,59.71
2023-04-24T07:21:41.108Z,61.54
2023-04-24T07:24:44.167Z,62.20
2023-04-24T07:27:46.962Z,62.48
2023-04-24T07:30:51.068Z,61.53
2023-04-24T07:33:53.772Z,60.88
2023-04-24T07:36:56.624Z,58.12
2023-04-24T07:39:59.332Z,58.84
2023-04-24T07:43:01.984Z,57.93
2023-04-24T07:46:07.788Z,55.66
2023-04-24T07:49:14.144Z,54.16
2023-04-24T07:52:17.340Z,54.95
2023-04-24T07:55:23.273Z,53.12
2023-04-24T07:58:27.021Z,51.24
2023-04-24T08:01:31.517Z,50.74
2023-04-24T08:04:34.414Z,50.62
2023-04-24T08:07:37.296Z,51.65
2023-04-24T08:10:40.104Z,52.49
2023-04-24T08:13:42.801Z,54.05
2023-04-24T08:16:47.070Z,53.48
2023-04-24T08:19:50.667Z,55.92
2023-04-24T08:22:53.480Z,55.13
2023-04-24T08:25:56.200Z,56.26
2023-04-24T08:28:58.999Z,56.57
2023-04-24T08:32:03.075Z,56.31
2023-04-24T08:35:06.478Z,55.97
2023-04-24T08:38:09.068Z,55.92
2023-04-24T08:41:11.826Z,53.84
2023-04-24T08:44:16.582Z,55.32
2023-04-24T08:47:22.423Z,53.49
2023-04-24T08:50:25.249Z,53.80
2023-04-24T08:53:28.636Z,55.25
2023-04-24T08:56:32.932Z,55.40
2023-04-24T08:59:37.359Z,56.72
2023-04-24T09:02:45.131Z,54.23
2023-04-24T09:05:50.539Z,52.95
2023-04-24T09:08:56.824Z,53.63
2023-04-24T09:12:00.468Z,52.96
2023-04-24T09:15:05.075Z,52.91
2023-04-24T09:18:09.313Z,54.31
2023-04-24T09:21:12.394Z,58.37
2023-04-24T09:24:19.316Z,58.09
2023-04-24T09:27:25.795Z,58.56
2023-04-24T09:30:28.660Z,58.10
2023-04-24T09:33:32.845Z,56.19
2023-04-24T09:36:38.125Z,57.01
2023-04-24T09:39:45.055Z,56.33
2023-04-24T09:42:53.435Z,55.58
2023-04-24T09:45:59.600Z,52.42
2023-04-24T09:49:10.262Z,52.58
2023-04-24T09:52:13.723Z,52.43
2023-04-24T09:55:21.293Z,52.05
2023-04-24T09:58:28.737Z,50.68
2023-04-24T10:01:33.356Z,50.42
2023-04-24T10:04:38.443Z,50.29
2023-04-24T10:07:41.699Z,50.51
2023-04-24T10:10:46.685Z,48.68
2023-04-24T10:13:49.932Z,48.34
2023-04-24T10:16:57.574Z,47.00
2023-04-24T10:20:03.194Z,47.43
2023-04-24T10:23:07.245Z,45.94
2023-04-24T10:26:11.534Z,46.32
2023-04-24T10:29:16.600Z,47.30
2023-04-24T10:32:19.448Z,46.90
2023-04-24T10:35:27.915Z,48.34
2023-04-24T10:38:32.763Z,47.86
2023-04-24T10:41:36.103Z,47.88
2023-04-24T10:44:38.917Z,48.49
2023-04-24T10:47:43.329Z,49.50
2023-04-24T10:50:49.306Z,49.93
2023-04-24T10:53:52.631Z,49.86
2023-04-24T10:57:15.803Z,49.44
2023-04-24T11:00:22.923Z,50.34
2023-04-24T11:03:30.281Z,50.33
2023-04-24T11:06:37.032Z,50.06
2023-04-24T11:09:41.632Z,50.83
2023-04-24T11:12:45.948Z,51.17
2023-04-24T11:16:16.166Z,51.17
2023-04-24T11:19:26.203Z,50.88
2023-04-24T11:22:35.144Z,49.41
2023-04-24T11:25:38.083Z,50.79
2023-04-24T11:28:47.105Z,49.19
2023-04-24T11:31:52.227Z,48.98
2023-04-24T11:34:57.189Z,47.64
2023-04-24T11:38:22.682Z,47.66
2023-04-24T11:41:27.429Z,49.47
2023-04-24T11:44:32.832Z,49.33
2023-04-24T11:47:35.794Z,51.50
2023-04-24T11:50:38.744Z,52.02
2023-04-24T11:53:43.574Z,52.26
2023-04-24T11:56:48.926Z,51.61
2023-04-24T11:59:52.069Z,49.06
2023-04-24T12:03:07.808Z,47.73
2023-04-24T12:06:13.046Z,47.55
2023-04-24T12:09:18.550Z,47.05
2023-04-24T12:12:21.469Z,46.41
2023-04-24T12:15:24.902Z,46.76
2023-04-24T12:18:28.346Z,48.08
2023-04-24T12:21:32.944Z,48.43
2023-04-24T12:24:37.221Z,50.04
2023-04-24T12:27:40.228Z,49.71
2023-04-24T12:30:45.712Z,50.35
2023-04-24T12:33:48.867Z,49.99
2023-04-24T12:36:51.556Z,49.07
2023-04-24T12:40:03.148Z,49.75
2023-04-24T12:43:16.013Z,50.69
2023-04-24T12:46:20.560Z,49.94
2023-04-24T12:49:25.411Z,51.58
2023-04-24T12:52:29.205Z,51.21
2023-04-24T12:55:33.434Z,52.20
2023-04-24T12:58:36.261Z,54.82
2023-04-24T13:01:39.259Z,56.21
2023-04-24T13:04:42.078Z,56.09
2023-04-24T13:07:44.988Z,56.06
2023-04-24T13:10:49.255Z,56.37
2023-04-24T13:13:54.890Z,53.37
2023-04-24T13:16:58.247Z,53.66
2023-04-24T13:20:01.412Z,52.89
2023-04-24T13:23:04.471Z,52.89
2023-04-24T13:26:08.610Z,54.12
2023-04-24T13:29:11.857Z,53.54
2023-04-24T13:32:15.007Z,54.84
2023-04-24T13:35:18.165Z,55.38
2023-04-24T13:38:22.505Z,56.38
2023-04-24T13:41:26.927Z,53.89
2023-04-24T13:44:29.806Z,54.87
2023-04-24T13:47:32.860Z,53.41
2023-04-24T13:50:35.743Z,54.37
2023-04-24T13:53:39.704Z,54.25
2023-04-24T13:56:44.117Z,53.83
2023-04-24T13:59:47.357Z,53.55
2023-04-24T14:02:50.498Z,52.33
2023-04-24T14:05:53.406Z,52.02
2023-04-24T14:08:56.463Z,53.70
2023-04-24T14:12:02.064Z,53.79
2023-04-24T14:15:06.055Z,54.10
2023-04-24T14:18:09.103Z,53.74
2023-04-24T14:21:12.041Z,53.09
2023-04-24T14:24:14.912Z,53.50
2023-04-24T14:27:19.192Z,52.42
2023-04-24T14:30:22.206Z,52.00
2023-04-24T14:33:25.132Z,50.82
2023-04-24T14:36:27.874Z,50.66
2023-04-24T14:39:30.781Z,51.74
2023-04-24T14:42:35.432Z,51.94
2023-04-24T14:45:39.222Z,51.81
2023-04-24T14:48:42.314Z,52.39
2023-04-24T14:51:45.072Z,52.35
2023-04-24T14:54:47.932Z,53.52
2023-04-24T14:57:52.324Z,52.91
2023-04-24T15:00:55.563Z,51.02
2023-04-24T15:03:58.827Z,50.05
2023-04-24T15:07:01.845Z,49.58
2023-04-24T15:10:05.564Z,50.01
2023-04-24T15:13:10.095Z,50.19
2023-04-24T15:16:13.078Z,50.82
2023-04-24T15:19:15.939Z,51.28
2023-04-24T15:22:18.782Z,52.14
2023-04-24T15:25:21.609Z,53.26
2023-04-24T15:28:26.937Z,52.70
2023-04-24T15:31:29.798Z,55.36
2023-04-24T15:34:33.094Z,56.11
2023-04-24T15:37:36.013Z,57.65
2023-04-24T15:40:39.103Z,55.89
2023-04-24T15:43:44.117Z,54.69
2023-04-24T15:46:46.898Z,55.08
2023-04-24T15:49:49.663Z,54.56
2023-04-24T15:52:52.381Z,55.65
2023-04-24T15:55:57.172Z,56.21
2023-04-24T15:59:01.513Z,55.03
2023-04-24T16:02:04.971Z,54.53
2023-04-24T16:05:08.883Z,54.50
2023-04-24T16:08:11.682Z,55.34
2023-04-24T16:11:14.416Z,53.41
2023-04-24T16:14:18.479Z,51.44
2023-04-24T16:17:21.230Z,49.72
2023-04-24T16:20:24.139Z,50.26
2023-04-24T16:23:27.109Z,52.01
2023-04-24T16:26:29.880Z,50.64
2023-04-24T16:29:34.043Z,51.62
2023-04-24T16:32:36.866Z,52.49
2023-04-24T16:35:39.864Z,50.72
2023-04-24T16:38:43.517Z,50.07
2023-04-24T16:41:47.030Z,49.99
2023-04-24T16:44:52.106Z,50.48
2023-04-24T16:48:04.473Z,50.58
2023-04-24T16:51:08.483Z,51.02
2023-04-24T16:54:11.857Z,50.54
2023-04-24T16:57:16.274Z,51.68
2023-04-24T17:00:20.846Z,51.77
2023-04-24T17:03:23.913Z,51.31
2023-04-24T17:06:26.785Z,51.19
2023-04-24T17:09:29.640Z,50.02
2023-04-24T17:12:32.449Z,50.31
2023-04-24T17:15:36.602Z,50.14
2023-04-24T17:18:39.520Z,50.03
2023-04-24T17:21:42.511Z,49.78
2023-04-24T17:24:45.402Z,49.29
2023-04-24T17:27:48.374Z,49.46
2023-04-24T17:30:54.543Z,49.92
2023-04-24T17:33:57.641Z,50.87
2023-04-24T17:37:00.531Z,50.75
2023-04-24T17:40:04.307Z,51.21
2023-04-24T17:43:07.118Z,51.24
2023-04-24T17:46:11.301Z,51.59
2023-04-24T17:49:14.122Z,52.34
2023-04-24T17:52:17.715Z,52.88
2023-04-24T17:55:20.920Z,52.96
2023-04-24T17:58:23.801Z,52.76
2023-04-24T18:01:29.105Z,53.28
2023-04-24T18:04:32.118Z,54.02
2023-04-24T18:07:35.057Z,54.37
2023-04-24T18:10:38.035Z,54.19
2023-04-24T18:13:42.054Z,55.23
2023-04-24T18:16:46.393Z,55.66
2023-04-24T18:19:49.241Z,55.83
2023-04-24T18:22:51.993Z,57.02
2023-04-24T18:25:55.297Z,57.60
2023-04-24T18:28:58.099Z,57.38
2023-04-24T18:32:04.908Z,57.67
2023-04-24T18:35:08.279Z,58.08
2023-04-24T18:38:11.189Z,57.75
2023-04-24T18:41:14.540Z,57.31
2023-04-24T18:44:17.295Z,57.70
2023-04-24T18:47:21.867Z,58.26
2023-04-24T18:50:25.724Z,58.45
2023-04-24T18:53:28.546Z,58.92
2023-04-24T18:56:31.378Z,58.66
2023-04-24T18:59:34.212Z,59.23
2023-04-24T19:02:38.624Z,58.24
2023-04-24T19:05:41.481Z,59.34
2023-04-24T19:08:44.899Z,58.78
2023-04-24T19:11:47.746Z,58.91
2023-04-24T19:14:51.546Z,59.28
2023-04-24T19:17:55.774Z,59.92
2023-04-24T19:20:59.025Z,59.21
2023-04-24T19:24:02.121Z,60.37
2023-04-24T19:27:04.844Z,62.49
2023-04-24T19:30:08.972Z,63.46
2023-04-24T19:33:13.213Z,64.75
2023-04-24T19:36:17.742Z,65.22
2023-04-24T19:39:20.593Z,66.08
2023-04-24T19:42:35.905Z,66.52
2023-04-24T19:45:45.331Z,64.60
2023-04-24T19:48:49.893Z,64.55
2023-04-24T19:51:52.872Z,64.23
2023-04-24T19:54:56.084Z,63.13
2023-04-24T19:57:58.823Z,63.82
2023-04-24T20:01:01.901Z,65.31
2023-04-24T20:04:07.756Z,66.33
2023-04-24T20:07:10.890Z,66.54
2023-04-24T20:10:13.701Z,65.89
2023-04-24T20:13:16.641Z,63.93
2023-04-24T20:16:19.594Z,64.29
2023-04-24T20:19:23.780Z,65.03
2023-04-24T20:22:26.661Z,64.99
2023-04-24T20:25:29.451Z,66.43
2023-04-24T20:28:32.112Z,66.88
2023-04-24T20:31:34.900Z,67.43
2023-04-24T20:34:38.922Z,67.06
2023-04-24T20:37:42.395Z,67.79
2023-04-24T20:40:57.112Z,67.53
2023-04-24T20:44:01.583Z,67.81
2023-04-24T20:47:04.838Z,68.63
2023-04-24T20:50:10.382Z,68.63
2023-04-24T20:53:13.212Z,68.53
2023-04-24T20:56:16.445Z,69.49
2023-04-24T20:59:19.216Z,69.66
2023-04-24T21:02:22.103Z,69.14
2023-04-24T21:05:26.197Z,69.72
2023-04-24T21:08:29.268Z,69.70
2023-04-24T21:11:32.137Z,70.07
2023-04-24T21:14:34.961Z,69.74
2023-04-24T21:17:37.877Z,69.61
2023-04-24T21:20:41.973Z,69.23
2023-04-24T21:23:44.770Z,69.63
2023-04-24T21:26:47.828Z,69.74
2023-04-24T21:29:50.767Z,70.02
2023-04-24T21:32:53.943Z,70.40
2023-04-24T21:35:58.215Z,70.46
2023-04-24T21:39:00.951Z,70.49
2023-04-24T21:42:03.875Z,71.40
2023-04-24T21:45:07.651Z,72.97
2023-04-24T21:48:10.766Z,72.71
2023-04-24T21:51:16.614Z,73.08
2023-04-24T21:54:20.500Z,73.74
2023-04-24T21:57:23.182Z,74.05
2023-04-24T22:00:26.072Z,74.50
2023-04-24T22:03:29.734Z,74.97
2023-04-24T22:06:34.919Z,75.27
2023-04-24T22:09:37.576Z,75.29
2023-04-24T22:12:40.346Z,76.45
2023-04-24T22:15:43.059Z,76.56
2023-04-24T22:18:47.707Z,76.55
2023-04-24T22:21:52.045Z,76.82
2023-04-24T22:24:55.642Z,77.46
2023-04-24T22:27:58.288Z,76.98
2023-04-24T22:31:01.245Z,76.92
2023-04-24T22:34:04.074Z,76.48
2023-04-24T22:37:08.820Z,76.59
2023-04-24T22:40:12.405Z,77.60
2023-04-24T22:43:15.220Z,77.38
2023-04-24T22:46:18.362Z,77.52
2023-04-24T22:49:21.548Z,78.00
2023-04-24T22:52:26.196Z,77.49
2023-04-24T22:55:29.236Z,78.38
2023-04-24T22:58:32.034Z,78.12
2023-04-24T23:01:34.745Z,77.29
2023-04-24T23:04:37.549Z,77.43
2023-04-24T23:07:41.836Z,76.44
2023-04-24T23:10:44.629Z,77.54
2023-04-24T23:13:47.518Z,78.19
2023-04-24T23:16:50.444Z,77.72
2023-04-24T23:19:53.155Z,77.12
2023-04-24T23:22:57.454Z,74.41
2023-04-24T23:26:00.868Z,72.83
2023-04-24T23:29:03.665Z,71.36
2023-04-24T23:32:06.895Z,70.26
2023-04-24T23:35:10.395Z,70.14
2023-04-24T23:38:14.411Z,70.80
2023-04-24T23:41:17.085Z,71.40
2023-04-24T23:44:19.834Z,71.47
2023-04-24T23:47:22.728Z,71.96
2023-04-24T23:50:25.932Z,72.29
2023-04-24T23:53:30.655Z,73.22
2023-04-24T23:56:33.354Z,73.85
2023-04-24T23:59:36.426Z,74.00
